createdAt,value
2022-11-07T00:00:07.730Z,95256.16
2022-11-07T00:02:34.492Z,95250.63
2022-11-07T00:05:01.997Z,95261.03
2022-11-07T00:07:28.529Z,95258.78
2022-11-07T00:09:54.977Z,95260.09
2022-11-07T00:12:21.436Z,95259.97
2022-11-07T00:14:48.481Z,95253.84
2022-11-07T00:17:15.090Z,95256.78
2022-11-07T00:19:41.885Z,95260.38
2022-11-07T00:22:08.836Z,95262.13
2022-11-07T00:24:35.319Z,95263.53
2022-11-07T00:27:02.374Z,95262.47
2022-11-07T00:29:28.984Z,95273.56
2022-11-07T00:31:55.471Z,95278.06
2022-11-07T00:34:22.254Z,95277.31
2022-11-07T00:36:48.775Z,95281.00
2022-11-07T00:39:15.373Z,95278.31
2022-11-07T00:41:41.852Z,95282.00
2022-11-07T00:44:08.313Z,95284.06
2022-11-07T00:46:34.831Z,95290.38
2022-11-07T00:49:01.310Z,95284.31
2022-11-07T00:51:28.448Z,95278.50
2022-11-07T00:53:55.402Z,95279.78
2022-11-07T00:56:24.441Z,95280.28
2022-11-07T00:58:55.509Z,95283.25
2022-11-07T01:01:28.022Z,95287.72
2022-11-07T01:03:54.978Z,95285.41
2022-11-07T01:06:21.731Z,95276.25
2022-11-07T01:08:48.204Z,95272.09
2022-11-07T01:11:15.017Z,95268.75
2022-11-07T01:13:41.852Z,95264.50
2022-11-07T01:16:09.910Z,95268.41
2022-11-07T01:18:36.379Z,95275.00
2022-11-07T01:21:12.129Z,95272.81
2022-11-07T01:23:41.673Z,95274.34
2022-11-07T01:26:10.588Z,95273.94
2022-11-07T01:28:37.078Z,95272.75
2022-11-07T01:31:05.183Z,95272.56
2022-11-07T01:33:31.989Z,95269.78
2022-11-07T01:36:06.115Z,95269.19
2022-11-07T01:38:33.431Z,95272.75
2022-11-07T01:40:59.965Z,95279.44
2022-11-07T01:44:00.046Z,95281.72
2022-11-07T01:46:31.891Z,95278.88
2022-11-07T01:49:04.550Z,95280.69
2022-11-07T01:51:34.436Z,95269.25
2022-11-07T01:54:01.406Z,95274.63
2022-11-07T01:56:29.437Z,95272.78
2022-11-07T01:58:56.435Z,95272.91
2022-11-07T02:01:23.405Z,95281.56
2022-11-07T02:03:50.266Z,95270.13
2022-11-07T02:06:37.679Z,95265.84
2022-11-07T02:09:04.665Z,95263.31
2022-11-07T02:11:56.941Z,95265.78
2022-11-07T02:14:23.411Z,95261.69
2022-11-07T02:16:49.888Z,95253.97
2022-11-07T02:19:37.276Z,95248.53
2022-11-07T02:22:29.782Z,95253.56
2022-11-07T02:24:59.359Z,95249.00
2022-11-07T02:27:27.789Z,95236.53
2022-11-07T02:30:24.606Z,95239.34
2022-11-07T02:32:51.147Z,95246.69
2022-11-07T02:35:43.339Z,95258.34
2022-11-07T02:38:34.928Z,95253.06
2022-11-07T02:41:12.123Z,95249.88
2022-11-07T02:43:44.403Z,95242.28
2022-11-07T02:46:11.982Z,95242.94
2022-11-07T02:48:45.010Z,95239.38
2022-11-07T02:51:11.474Z,95238.84
2022-11-07T02:53:38.317Z,95239.94
2022-11-07T02:56:05.192Z,95242.78
2022-11-07T02:58:31.695Z,95244.97
2022-11-07T03:00:58.748Z,95237.03
2022-11-07T03:03:25.198Z,95246.38
2022-11-07T03:05:55.022Z,95232.72
2022-11-07T03:08:21.507Z,95229.47
2022-11-07T03:10:47.942Z,95214.81
2022-11-07T03:13:14.677Z,95220.03
2022-11-07T03:15:41.325Z,95227.28
2022-11-07T03:18:07.926Z,95233.81
2022-11-07T03:20:34.743Z,95234.22
2022-11-07T03:23:01.274Z,95224.50
2022-11-07T03:25:27.770Z,95226.69
2022-11-07T03:27:54.247Z,95230.09
2022-11-07T03:30:20.724Z,95231.19
2022-11-07T03:32:47.175Z,95238.69
2022-11-07T03:35:13.834Z,95239.81
2022-11-07T03:37:40.833Z,95235.38
2022-11-07T03:40:07.870Z,95242.25
2022-11-07T03:42:40.816Z,95249.66
2022-11-07T03:45:08.309Z,95261.66
2022-11-07T03:47:36.145Z,95262.72
2022-11-07T03:50:03.007Z,95274.03
2022-11-07T03:52:29.568Z,95263.88
2022-11-07T03:54:56.089Z,95273.66
2022-11-07T03:57:22.861Z,95273.72
2022-11-07T03:59:49.479Z,95272.75
2022-11-07T04:02:16.384Z,95270.44
2022-11-07T04:04:42.906Z,95269.22
2022-11-07T04:07:09.364Z,95273.59
2022-11-07T04:09:35.837Z,95268.00
2022-11-07T04:12:02.483Z,95279.56
2022-11-07T04:14:49.031Z,95287.13
2022-11-07T04:17:15.507Z,95287.94
2022-11-07T04:19:42.001Z,95292.59
2022-11-07T04:22:08.947Z,95281.22
2022-11-07T04:24:35.550Z,95290.75
2022-11-07T04:27:02.044Z,95293.19
2022-11-07T04:29:28.518Z,95293.97
2022-11-07T04:31:54.987Z,95296.88
2022-11-07T04:34:21.454Z,95301.72
2022-11-07T04:36:47.982Z,95295.81
2022-11-07T04:39:14.675Z,95297.31
2022-11-07T04:41:41.154Z,95299.13
2022-11-07T04:44:07.827Z,95311.75
2022-11-07T04:46:34.287Z,95307.69
2022-11-07T04:49:00.727Z,95312.97
2022-11-07T04:51:27.329Z,95302.59
2022-11-07T04:53:53.840Z,95298.97
2022-11-07T04:56:20.325Z,95305.25
2022-11-07T04:58:46.829Z,95294.06
2022-11-07T05:01:13.302Z,95297.75
2022-11-07T05:03:42.016Z,95299.38
2022-11-07T05:06:11.522Z,95296.72
2022-11-07T05:08:37.979Z,95301.41
2022-11-07T05:11:04.809Z,95304.03
2022-11-07T05:13:31.262Z,95302.63
2022-11-07T05:15:57.763Z,95303.41
2022-11-07T05:18:24.469Z,95314.41
2022-11-07T05:20:51.067Z,95315.00
2022-11-07T05:23:18.113Z,95320.91
2022-11-07T05:25:50.265Z,95308.75
2022-11-07T05:28:31.218Z,95315.00
2022-11-07T05:31:02.382Z,95322.91
2022-11-07T05:33:29.366Z,95310.75
2022-11-07T05:35:56.082Z,95318.84
2022-11-07T05:38:22.979Z,95316.84
2022-11-07T05:40:49.513Z,95308.94
2022-11-07T05:43:16.392Z,95321.09
2022-11-07T05:45:43.344Z,95314.81
2022-11-07T05:48:11.910Z,95307.31
2022-11-07T05:50:39.325Z,95313.59
2022-11-07T05:53:06.293Z,95316.44
2022-11-07T05:55:32.897Z,95326.56
2022-11-07T05:58:05.705Z,95320.69
2022-11-07T06:00:33.433Z,95326.38
2022-11-07T06:02:59.977Z,95335.47
2022-11-07T06:05:27.109Z,95325.97
2022-11-07T06:07:53.622Z,95340.78
2022-11-07T06:10:20.393Z,95344.81
2022-11-07T06:12:47.005Z,95342.59
2022-11-07T06:15:13.780Z,95346.25
2022-11-07T06:17:40.256Z,95350.50
2022-11-07T06:20:07.246Z,95346.84
2022-11-07T06:22:34.022Z,95350.50
2022-11-07T06:25:00.544Z,95347.28
2022-11-07T06:27:26.980Z,95360.84
2022-11-07T06:29:53.433Z,95369.38
2022-11-07T06:32:20.328Z,95365.50
2022-11-07T06:34:47.714Z,95368.94
2022-11-07T06:37:14.546Z,95378.09
2022-11-07T06:39:41.069Z,95377.66
2022-11-07T06:42:07.517Z,95378.09
2022-11-07T06:44:33.969Z,95368.56
2022-11-07T06:47:00.449Z,95372.81
2022-11-07T06:49:26.947Z,95374.59
2022-11-07T06:51:53.452Z,95383.53
2022-11-07T06:54:19.870Z,95380.47
2022-11-07T06:56:46.515Z,95372.75
2022-11-07T06:59:13.064Z,95374.56
2022-11-07T07:01:39.641Z,95379.63
2022-11-07T07:04:06.227Z,95380.00
2022-11-07T07:06:32.805Z,95393.53
2022-11-07T07:08:59.288Z,95396.88
2022-11-07T07:11:25.828Z,95404.72
2022-11-07T07:13:52.273Z,95403.13
2022-11-07T07:16:21.762Z,95402.25
2022-11-07T07:18:49.599Z,95402.44
2022-11-07T07:21:16.140Z,95399.03
2022-11-07T07:23:42.923Z,95413.38
2022-11-07T07:26:13.088Z,95408.50
2022-11-07T07:28:39.796Z,95414.50
2022-11-07T07:31:10.845Z,95414.28
2022-11-07T07:33:37.657Z,95408.59
2022-11-07T07:36:04.591Z,95421.56
2022-11-07T07:38:31.261Z,95424.13
2022-11-07T07:40:58.378Z,95423.44
2022-11-07T07:43:25.036Z,95417.50
2022-11-07T07:45:57.841Z,95418.47
2022-11-07T07:48:24.529Z,95417.56
2022-11-07T07:50:51.380Z,95421.88
2022-11-07T07:53:18.528Z,95417.31
2022-11-07T07:55:45.214Z,95402.81
2022-11-07T07:58:12.289Z,95407.69
2022-11-07T08:00:39.231Z,95399.91
2022-11-07T08:03:08.703Z,95403.09
2022-11-07T08:05:35.751Z,95412.16
2022-11-07T08:08:02.362Z,95415.38
2022-11-07T08:10:41.996Z,95407.88
2022-11-07T08:13:12.075Z,95407.72
2022-11-07T08:15:38.552Z,95408.63
2022-11-07T08:18:05.146Z,95408.31
2022-11-07T08:20:31.829Z,95406.38
2022-11-07T08:23:09.833Z,95407.34
2022-11-07T08:25:39.335Z,95399.25
2022-11-07T08:28:06.000Z,95394.91
2022-11-07T08:30:32.689Z,95391.88
2022-11-07T08:33:02.796Z,95385.91
2022-11-07T08:35:32.442Z,95387.19
2022-11-07T08:37:59.229Z,95390.34
2022-11-07T08:40:26.585Z,95394.75
2022-11-07T08:42:53.097Z,95396.66
2022-11-07T08:45:19.602Z,95395.09
2022-11-07T08:47:50.264Z,95392.69
2022-11-07T08:50:16.767Z,95400.25
2022-11-07T08:52:43.267Z,95407.16
2022-11-07T08:55:10.237Z,95408.09
2022-11-07T08:57:36.656Z,95406.63
2022-11-07T09:00:04.197Z,95410.97
2022-11-07T09:05:17.212Z,95410.31
2022-11-07T09:07:44.457Z,95410.63
2022-11-07T09:10:11.397Z,95400.66
2022-11-07T09:12:48.393Z,95401.31
2022-11-07T09:15:15.235Z,95399.41
2022-11-07T09:17:41.752Z,95398.03
2022-11-07T09:20:09.231Z,95404.19
2022-11-07T09:22:36.355Z,95399.09
2022-11-07T09:25:02.913Z,95402.22
2022-11-07T09:27:29.373Z,95396.81
2022-11-07T09:29:55.885Z,95395.56
2022-11-07T09:32:43.424Z,95400.59
2022-11-07T09:35:09.224Z,95393.13
2022-11-07T09:37:41.436Z,95389.22
2022-11-07T09:40:20.020Z,95386.00
2022-11-07T09:42:53.849Z,95385.91
2022-11-07T09:45:20.379Z,95382.13
2022-11-07T09:47:56.539Z,95382.44
2022-11-07T09:50:43.755Z,95386.38
2022-11-07T09:53:20.779Z,95387.19
2022-11-07T09:55:57.116Z,95385.78
2022-11-07T09:58:29.773Z,95387.16
2022-11-07T10:01:00.130Z,95383.31
2022-11-07T10:03:27.458Z,95386.44
2022-11-07T10:06:06.640Z,95382.16
2022-11-07T10:12:12.457Z,95388.25
2022-11-07T10:15:07.111Z,95383.53
2022-11-07T10:17:56.166Z,95387.00
2022-11-07T10:20:28.808Z,95386.44
2022-11-07T10:23:19.671Z,95390.59
2022-11-07T10:25:53.685Z,95393.38
2022-11-07T10:28:21.935Z,95394.22
2022-11-07T10:30:51.367Z,95390.88
2022-11-07T10:33:21.466Z,95391.09
2022-11-07T10:35:48.926Z,95392.47
2022-11-07T10:38:29.912Z,95395.13
2022-11-07T10:40:56.808Z,95390.50
2022-11-07T10:43:34.342Z,95378.81
2022-11-07T10:46:07.156Z,95380.34
2022-11-07T10:48:33.646Z,95384.06
2022-11-07T10:51:00.149Z,95378.75
2022-11-07T10:53:26.648Z,95378.03
2022-11-07T10:55:54.415Z,95370.31
2022-11-07T10:58:28.874Z,95369.72
2022-11-07T11:00:59.361Z,95366.25
2022-11-07T11:03:43.332Z,95360.69
2022-11-07T11:06:12.074Z,95364.28
2022-11-07T11:08:39.239Z,95360.06
2022-11-07T11:11:20.940Z,95351.06
2022-11-07T11:13:48.533Z,95357.66
2022-11-07T11:16:27.925Z,95362.94
2022-11-07T11:18:57.477Z,95355.59
2022-11-07T11:21:24.426Z,95353.84
2022-11-07T11:23:52.301Z,95338.44
2022-11-07T11:26:34.150Z,95340.19
2022-11-07T11:29:07.447Z,95333.91
2022-11-07T11:31:40.809Z,95333.38
2022-11-07T11:34:17.516Z,95334.94
2022-11-07T11:37:13.909Z,95329.91
2022-11-07T11:39:57.949Z,95320.81
2022-11-07T11:42:55.187Z,95319.81
2022-11-07T11:45:51.026Z,95320.19
2022-11-07T11:48:40.175Z,95313.22
2022-11-07T11:51:19.694Z,95315.81
2022-11-07T11:53:46.208Z,95310.00
2022-11-07T11:56:39.344Z,95302.19
2022-11-07T11:59:21.019Z,95290.50
2022-11-07T12:02:05.695Z,95288.19
2022-11-07T12:04:51.310Z,95287.25
2022-11-07T12:07:48.449Z,95288.53
2022-11-07T12:10:30.197Z,95289.59
2022-11-07T12:13:09.365Z,95289.59
2022-11-07T12:15:51.300Z,95277.50
2022-11-07T12:18:19.727Z,95277.31
2022-11-07T12:21:17.740Z,95273.44
2022-11-07T12:23:51.203Z,95274.44
2022-11-07T12:26:36.184Z,95269.94
2022-11-07T12:29:29.134Z,95275.19
2022-11-07T12:32:19.758Z,95261.03
2022-11-07T12:34:52.424Z,95251.59
2022-11-07T12:37:30.222Z,95248.88
2022-11-07T12:40:17.270Z,95249.44
2022-11-07T12:43:15.610Z,95247.19
2022-11-07T12:45:48.875Z,95244.53
2022-11-07T12:48:40.631Z,95241.66
2022-11-07T12:51:35.104Z,95237.84
2022-11-07T12:54:27.079Z,95231.00
2022-11-07T12:56:54.402Z,95222.84
2022-11-07T12:59:28.869Z,95220.84
2022-11-07T13:02:16.685Z,95222.56
2022-11-07T13:04:54.099Z,95226.72
2022-11-07T13:07:28.688Z,95228.97
2022-11-07T13:10:08.402Z,95229.53
2022-11-07T13:12:40.013Z,95221.00
2022-11-07T13:15:09.383Z,95220.94
2022-11-07T13:17:44.486Z,95224.59
2022-11-07T13:20:31.093Z,95221.03
2022-11-07T13:23:00.129Z,95214.69
2022-11-07T13:25:29.033Z,95216.13
2022-11-07T13:27:55.451Z,95216.81
2022-11-07T13:30:36.676Z,95214.53
2022-11-07T13:33:03.951Z,95206.69
2022-11-07T13:35:32.712Z,95213.38
2022-11-07T13:38:09.857Z,95201.16
2022-11-07T13:40:39.388Z,95203.16
2022-11-07T13:43:15.671Z,95195.84
2022-11-07T13:45:50.048Z,95198.09
2022-11-07T13:48:24.241Z,95205.91
2022-11-07T13:51:28.809Z,95200.41
2022-11-07T13:54:01.306Z,95202.72
2022-11-07T13:56:29.737Z,95198.72
2022-11-07T13:58:56.527Z,95196.00
2022-11-07T14:01:23.102Z,95195.66
2022-11-07T14:03:49.660Z,95194.03
2022-11-07T14:06:16.971Z,95191.56
2022-11-07T14:08:47.642Z,95191.41
2022-11-07T14:11:19.701Z,95193.38
2022-11-07T14:13:48.224Z,95194.28
2022-11-07T14:16:23.501Z,95190.97
2022-11-07T14:18:57.148Z,95179.16
2022-11-07T14:21:32.742Z,95182.97
2022-11-07T14:23:59.841Z,95179.50
2022-11-07T14:26:31.488Z,95180.28
2022-11-07T14:28:58.837Z,95184.47
2022-11-07T14:31:30.480Z,95181.25
2022-11-07T14:34:16.941Z,95183.06
2022-11-07T14:36:47.701Z,95177.28
2022-11-07T14:39:15.897Z,95181.38
2022-11-07T14:41:43.890Z,95172.91
2022-11-07T14:44:15.993Z,95178.94
2022-11-07T14:46:43.168Z,95166.00
2022-11-07T14:49:18.734Z,95160.84
2022-11-07T14:51:45.365Z,95162.47
2022-11-07T14:54:16.662Z,95158.44
2022-11-07T14:56:45.638Z,95168.03
2022-11-07T14:59:14.716Z,95162.38
2022-11-07T15:01:57.567Z,95160.50
2022-11-07T15:04:35.601Z,95166.53
2022-11-07T15:07:32.201Z,95167.81
2022-11-07T15:10:11.232Z,95166.19
2022-11-07T15:12:49.291Z,95172.06
2022-11-07T15:15:24.317Z,95167.59
2022-11-07T15:17:53.158Z,95161.94
2022-11-07T15:20:21.765Z,95158.13
2022-11-07T15:22:48.319Z,95163.16
2022-11-07T15:25:34.807Z,95163.66
2022-11-07T15:28:22.450Z,95155.28
2022-11-07T15:30:51.586Z,95159.19
2022-11-07T15:33:18.917Z,95154.41
2022-11-07T15:35:47.425Z,95146.91
2022-11-07T15:38:19.415Z,95151.19
2022-11-07T15:40:46.593Z,95151.03
2022-11-07T15:43:13.106Z,95155.78
2022-11-07T15:45:40.447Z,95158.66
2022-11-07T15:48:07.344Z,95149.97
2022-11-07T15:50:34.323Z,95156.63
2022-11-07T15:53:00.917Z,95155.56
2022-11-07T15:55:28.495Z,95157.09
2022-11-07T15:57:55.252Z,95150.97
2022-11-07T16:00:28.441Z,95151.31
2022-11-07T16:02:54.989Z,95152.41
2022-11-07T16:05:21.954Z,95147.28
2022-11-07T16:07:48.497Z,95146.06
2022-11-07T16:10:23.197Z,95139.47
2022-11-07T16:12:50.102Z,95150.19
2022-11-07T16:15:18.267Z,95143.09
2022-11-07T16:17:44.947Z,95142.59
2022-11-07T16:20:15.713Z,95144.16
2022-11-07T16:22:46.321Z,95144.47
2022-11-07T16:25:22.486Z,95154.75
2022-11-07T16:27:51.320Z,95153.03
2022-11-07T16:30:18.669Z,95149.97
2022-11-07T16:32:45.270Z,95149.06
2022-11-07T16:35:11.783Z,95164.81
2022-11-07T16:37:38.439Z,95161.72
2022-11-07T16:40:07.041Z,95153.31
2022-11-07T16:42:33.517Z,95153.09
2022-11-07T16:45:00.009Z,95152.16
2022-11-07T16:47:26.804Z,95155.09
2022-11-07T16:49:56.062Z,95151.31
2022-11-07T16:52:22.686Z,95160.31
2022-11-07T16:54:52.235Z,95151.19
2022-11-07T16:57:18.744Z,95157.09
2022-11-07T16:59:46.588Z,95164.66
2022-11-07T17:02:27.029Z,95155.78
2022-11-07T17:04:54.307Z,95162.50
2022-11-07T17:07:22.673Z,95168.50
2022-11-07T17:09:49.435Z,95161.09
2022-11-07T17:12:22.676Z,95167.19
2022-11-07T17:14:49.627Z,95169.50
2022-11-07T17:17:20.159Z,95162.44
2022-11-07T17:19:47.164Z,95162.22
2022-11-07T17:22:16.459Z,95160.72
2022-11-07T17:24:43.593Z,95170.63
2022-11-07T17:27:21.720Z,95160.69
2022-11-07T17:29:48.590Z,95166.00
2022-11-07T17:32:15.031Z,95178.56
2022-11-07T17:34:41.755Z,95176.13
2022-11-07T17:37:13.825Z,95171.38
2022-11-07T17:39:40.679Z,95177.34
2022-11-07T17:42:08.688Z,95167.72
2022-11-07T17:44:38.527Z,95176.00
2022-11-07T17:47:05.606Z,95179.75
2022-11-07T17:49:32.199Z,95175.00
2022-11-07T17:51:58.863Z,95176.47
2022-11-07T17:54:29.315Z,95178.84
2022-11-07T17:56:56.215Z,95185.38
2022-11-07T17:59:23.092Z,95186.53
2022-11-07T18:01:49.679Z,95181.56
2022-11-07T18:04:16.316Z,95176.59
2022-11-07T18:06:43.055Z,95181.34
2022-11-07T18:09:14.100Z,95177.22
2022-11-07T18:11:40.639Z,95180.00
2022-11-07T18:14:07.102Z,95178.28
2022-11-07T18:16:34.924Z,95179.50
2022-11-07T18:19:02.057Z,95186.16
2022-11-07T18:21:33.354Z,95179.63
2022-11-07T18:24:00.622Z,95178.91
2022-11-07T18:26:29.523Z,95187.78
2022-11-07T18:29:03.973Z,95181.66
2022-11-07T18:31:33.444Z,95194.97
2022-11-07T18:34:01.224Z,95187.31
2022-11-07T18:36:28.201Z,95190.84
2022-11-07T18:38:54.993Z,95187.88
2022-11-07T18:41:23.093Z,95204.28
2022-11-07T18:43:49.758Z,95191.56
2022-11-07T18:46:19.640Z,95195.97
2022-11-07T18:48:46.463Z,95191.41
2022-11-07T18:51:16.845Z,95200.34
2022-11-07T18:53:43.487Z,95195.41
2022-11-07T18:56:11.942Z,95202.34
2022-11-07T18:58:39.293Z,95199.84
2022-11-07T19:01:08.038Z,95200.06
2022-11-07T19:03:35.598Z,95210.06
2022-11-07T19:06:10.355Z,95203.06
2022-11-07T19:08:38.949Z,95207.69
2022-11-07T19:11:08.591Z,95202.38
2022-11-07T19:13:40.729Z,95201.53
2022-11-07T19:16:09.452Z,95210.94
2022-11-07T19:18:36.098Z,95196.63
2022-11-07T19:21:03.124Z,95204.31
2022-11-07T19:23:30.407Z,95197.81
2022-11-07T19:25:57.074Z,95214.41
2022-11-07T19:28:23.574Z,95206.63
2022-11-07T19:30:50.327Z,95218.16
2022-11-07T19:33:17.105Z,95208.81
2022-11-07T19:35:47.016Z,95214.47
2022-11-07T19:38:14.619Z,95205.81
2022-11-07T19:40:41.590Z,95215.06
2022-11-07T19:43:08.141Z,95216.03
2022-11-07T19:45:34.650Z,95213.16
2022-11-07T19:48:01.140Z,95217.28
2022-11-07T19:50:27.625Z,95219.94
2022-11-07T19:52:54.103Z,95209.63
2022-11-07T19:55:20.585Z,95215.44
2022-11-07T19:57:49.547Z,95209.63
2022-11-07T20:00:16.514Z,95194.09
2022-11-07T20:02:46.514Z,95203.41
2022-11-07T20:05:13.193Z,95203.75
2022-11-07T20:07:39.733Z,95212.78
2022-11-07T20:10:06.770Z,95201.91
2022-11-07T20:12:33.542Z,95209.56
2022-11-07T20:15:00.377Z,95199.44
2022-11-07T20:17:26.878Z,95203.41
2022-11-07T20:19:53.340Z,95207.53
2022-11-07T20:22:19.855Z,95194.59
2022-11-07T20:24:46.611Z,95198.88
2022-11-07T20:27:13.083Z,95203.91
2022-11-07T20:29:39.547Z,95190.53
2022-11-07T20:32:06.044Z,95195.41
2022-11-07T20:34:32.519Z,95189.94
2022-11-07T20:36:59.262Z,95194.28
2022-11-07T20:39:25.764Z,95197.22
2022-11-07T20:41:52.353Z,95202.28
2022-11-07T20:44:19.321Z,95199.81
2022-11-07T20:46:46.370Z,95196.09
2022-11-07T20:49:14.863Z,95193.97
2022-11-07T20:51:41.756Z,95196.84
2022-11-07T20:54:12.446Z,95202.50
2022-11-07T20:56:38.900Z,95201.50
2022-11-07T20:59:05.846Z,95192.38
2022-11-07T21:01:33.021Z,95191.09
2022-11-07T21:03:59.645Z,95194.13
2022-11-07T21:06:26.291Z,95182.75
2022-11-07T21:08:52.788Z,95177.69
2022-11-07T21:11:19.558Z,95180.97
2022-11-07T21:13:51.516Z,95181.47
2022-11-07T21:16:21.368Z,95185.47
2022-11-07T21:18:48.378Z,95193.72
2022-11-07T21:21:20.216Z,95185.75
2022-11-07T21:23:50.923Z,95190.56
2022-11-07T21:26:20.409Z,95189.94
2022-11-07T21:28:47.084Z,95189.34
2022-11-07T21:31:19.815Z,95197.59
2022-11-07T21:33:46.505Z,95192.19
2022-11-07T21:36:15.798Z,95179.03
2022-11-07T21:38:42.566Z,95189.00
2022-11-07T21:41:12.003Z,95192.69
2022-11-07T21:43:39.706Z,95193.16
2022-11-07T21:46:33.073Z,95186.63
2022-11-07T21:48:59.785Z,95175.34
2022-11-07T21:51:29.201Z,95182.41
2022-11-07T21:53:58.538Z,95180.56
2022-11-07T21:56:27.549Z,95173.56
2022-11-07T21:58:56.628Z,95173.41
2022-11-07T22:01:24.261Z,95179.47
2022-11-07T22:04:06.089Z,95182.28
2022-11-07T22:06:36.290Z,95175.34
2022-11-07T22:09:03.961Z,95163.94
2022-11-07T22:11:30.482Z,95154.63
2022-11-07T22:13:57.141Z,95155.31
2022-11-07T22:16:23.654Z,95146.31
2022-11-07T22:18:50.349Z,95147.97
2022-11-07T22:21:20.186Z,95145.31
2022-11-07T22:23:47.390Z,95144.06
2022-11-07T22:26:17.093Z,95154.22
2022-11-07T22:28:46.029Z,95145.06
2022-11-07T22:31:15.694Z,95149.41
2022-11-07T22:33:42.358Z,95133.50
2022-11-07T22:36:10.314Z,95137.22
2022-11-07T22:38:37.671Z,95127.41
2022-11-07T22:41:14.014Z,95133.72
2022-11-07T22:43:41.150Z,95129.31
2022-11-07T22:46:12.432Z,95133.28
2022-11-07T22:48:39.634Z,95123.19
2022-11-07T22:51:18.326Z,95119.00
2022-11-07T22:53:44.894Z,95122.22
2022-11-07T22:56:14.420Z,95114.38
2022-11-07T22:58:41.958Z,95102.38
2022-11-07T23:01:18.415Z,95110.81
2022-11-07T23:03:45.498Z,95118.13
2022-11-07T23:06:15.008Z,95100.94
2022-11-07T23:08:47.954Z,95108.75
2022-11-07T23:14:07.671Z,95105.38
2022-11-07T23:16:36.915Z,95105.81
2022-11-07T23:19:06.502Z,95092.47
2022-11-07T23:21:36.690Z,95096.44
2022-11-07T23:24:04.008Z,95101.09
2022-11-07T23:26:31.192Z,95102.91
2022-11-07T23:28:57.743Z,95102.63
2022-11-07T23:31:24.327Z,95095.34
2022-11-07T23:33:51.065Z,95089.31
2022-11-07T23:36:17.596Z,95084.44
2022-11-07T23:38:44.244Z,95088.28
2022-11-07T23:41:15.533Z,95088.69
2022-11-07T23:43:42.965Z,95097.47
2022-11-07T23:46:12.514Z,95089.44
2022-11-07T23:48:38.993Z,95093.78
2022-11-07T23:51:09.231Z,95089.47
2022-11-07T23:53:38.606Z,95100.03
2022-11-07T23:56:06.155Z,95116.22
2022-11-07T23:58:32.703Z,95108.13
